createdAt,value
2023-03-22T00:02:42.188Z,11.40
2023-03-22T00:07:43.611Z,13.85
2023-03-22T00:12:45.804Z,12.40
2023-03-22T00:17:47.544Z,13.80
2023-03-22T00:22:49.324Z,11.50
2023-03-22T00:27:50.773Z,13.70
2023-03-22T00:32:52.282Z,16.15
2023-03-22T00:37:53.802Z,13.52
2023-03-22T00:42:55.221Z,13.23
2023-03-22T00:47:56.832Z,16.42
2023-03-22T00:52:58.610Z,16.45
2023-03-22T00:57:59.952Z,10.95
2023-03-22T01:03:01.365Z,12.27
2023-03-22T01:08:03.175Z,11.50
2023-03-22T01:13:05.651Z,14.60
2023-03-22T01:18:07.387Z,14.27
2023-03-22T01:23:08.812Z,12.70
2023-03-22T01:28:10.373Z,11.15
2023-03-22T01:33:11.725Z,12.80
2023-03-22T01:38:14.213Z,13.85
2023-03-22T01:43:16.445Z,11.25
2023-03-22T01:48:20.935Z,13.52
2023-03-22T01:53:23.371Z,11.77
2023-03-22T01:58:24.999Z,11.07
2023-03-22T02:03:35.704Z,13.13
2023-03-22T02:08:37.154Z,13.93
2023-03-22T02:14:00.419Z,13.23
2023-03-22T02:19:11.098Z,11.80
2023-03-22T02:24:31.041Z,12.63
2023-03-22T02:29:38.834Z,13.40
2023-03-22T02:34:56.504Z,12.07
2023-03-22T02:40:07.245Z,13.10
2023-03-22T02:45:15.710Z,12.63
2023-03-22T02:50:25.230Z,12.40
2023-03-22T02:55:53.049Z,12.57
2023-03-22T03:01:00.419Z,11.43
2023-03-22T03:06:04.036Z,14.43
2023-03-22T03:11:05.688Z,14.05
2023-03-22T03:16:08.252Z,10.20
2023-03-22T03:21:12.484Z,10.80
2023-03-22T03:26:20.628Z,15.73
2023-03-22T03:31:22.061Z,12.07
2023-03-22T03:36:25.359Z,10.70
2023-03-22T03:41:28.839Z,11.30
2023-03-22T03:46:30.596Z,10.32
2023-03-22T03:51:33.020Z,12.27
2023-03-22T03:56:34.471Z,11.85
2023-03-22T04:01:35.841Z,13.07
2023-03-22T04:06:37.258Z,11.93
2023-03-22T04:11:38.585Z,10.98
2023-03-22T04:16:40.240Z,15.70
2023-03-22T04:21:42.040Z,14.35
2023-03-22T04:26:43.460Z,12.60
2023-03-22T04:31:48.001Z,16.40
2023-03-22T04:36:49.441Z,10.27
2023-03-22T04:41:50.883Z,15.88
2023-03-22T04:46:52.297Z,14.90
2023-03-22T04:51:56.461Z,12.23
2023-03-22T04:56:57.820Z,12.60
2023-03-22T05:01:59.504Z,14.38
2023-03-22T05:07:00.927Z,13.77
2023-03-22T05:12:02.843Z,13.77
2023-03-22T05:17:04.170Z,14.57
2023-03-22T05:22:13.372Z,15.55
2023-03-22T05:27:16.376Z,16.35
2023-03-22T05:32:17.667Z,15.02
2023-03-22T05:37:18.981Z,14.43
2023-03-22T05:42:20.477Z,17.27
2023-03-22T05:47:21.992Z,15.77
2023-03-22T05:52:43.622Z,17.88
2023-03-22T05:57:46.061Z,15.07
2023-03-22T06:08:39.062Z,12.07
2023-03-22T06:13:41.058Z,13.13
2023-03-22T06:24:09.639Z,13.93
2023-03-22T06:29:11.786Z,16.45
2023-03-22T06:34:13.498Z,11.05
2023-03-22T06:39:14.826Z,11.77
2023-03-22T06:44:16.376Z,13.05
2023-03-22T06:54:20.376Z,11.25
2023-03-22T06:59:21.836Z,11.15
2023-03-22T07:04:23.284Z,10.25
2023-03-22T07:09:24.765Z,10.35
2023-03-22T07:14:30.407Z,11.30
2023-03-22T07:19:31.807Z,13.57
2023-03-22T07:24:33.201Z,10.68
2023-03-22T07:29:34.599Z,11.52
2023-03-22T07:34:35.921Z,9.82
2023-03-22T07:39:37.270Z,14.55
2023-03-22T07:44:38.645Z,11.35
2023-03-22T07:49:40.004Z,9.80
2023-03-22T07:54:41.481Z,9.45
2023-03-22T07:59:42.721Z,9.98
2023-03-22T08:19:48.929Z,8.55
2023-03-22T08:24:50.301Z,7.57
2023-03-22T08:44:58.397Z,6.22
2023-03-22T08:50:02.295Z,6.03
2023-03-22T09:10:11.739Z,5.60
2023-03-22T09:15:13.126Z,4.43
2023-03-22T09:20:14.517Z,3.75
2023-03-22T09:30:20.771Z,4.75
2023-03-22T09:35:28.853Z,3.10
2023-03-22T09:40:31.701Z,4.10
2023-03-22T09:45:33.121Z,5.43
2023-03-22T09:50:36.615Z,4.15
2023-03-22T09:55:44.327Z,3.97
2023-03-22T10:00:48.193Z,3.25
2023-03-22T10:10:59.801Z,5.35
2023-03-22T10:16:06.686Z,3.10
2023-03-22T10:31:27.203Z,6.50
2023-03-22T10:41:36.206Z,5.75
2023-03-22T10:46:38.877Z,5.28
2023-03-22T13:17:41.519Z,4.20
2023-03-22T13:23:03.178Z,4.28
2023-03-22T13:28:27.075Z,4.22
2023-03-22T14:00:08.823Z,5.32
2023-03-22T14:05:16.598Z,6.38
